Observation data for Hereford on 11/19/2019      Previous  Date       Current Mesonet Observations  Soil Data  Daily Summary Page  Observations in Plain Language
KHES 190600Z 21001KT 04/M03 A3001 RMK A01 T00411027  RH  061%=      5-min Rain = 0
KHES 190605Z 21001KT 04/M03 A30 RMK A01 T00421029  RH  060%=      5-min Rain = 0
KHES 190610Z 00000KT 04/M03 A30 RMK A01 T00391030  RH  061%=      5-min Rain = 0
KHES 190615Z 00000KT 04/M03 A30 RMK A01 T00361032  RH  061%=      5-min Rain = 0
KHES 190620Z 00000KT 03/M03 A3001 RMK A01 T00341034  RH  061%=      5-min Rain = 0
KHES 190625Z 18001KT 03/M03 A30 RMK A01 T00331033  RH  062%=      5-min Rain = 0
KHES 190630Z 19002KT 03/M03 A30 RMK A01 T00321033  RH  063%=      5-min Rain = 0
KHES 190635Z 23003KT 03/M03 A30 RMK A01 T00301031  RH  064%=      5-min Rain = 0
KHES 190640Z 23004KT 02/M03 A30 RMK A01 T00221033  RH  067%=      5-min Rain = 0
KHES 190645Z 23004KT 02/M03 A30 RMK A01 T00201029  RH  071%=      5-min Rain = 0
KHES 190650Z 25004KT 02/M03 A30 RMK A01 T00181029  RH  071%=      5-min Rain = 0
KHES 190655Z 26005KT 02/M03 A30 RMK A01 T00161030  RH  072%=      5-min Rain = 0
KHES 190700Z 27005KT 02/M03 A30 RMK A01 T00171028  RH  073%=      5-min Rain = 0
KHES 190705Z 28005KT 02/M03 A30 RMK A01 T00211029  RH  070%=      5-min Rain = 0
KHES 190710Z 28006KT 02/M03 A30 RMK A01 T00221033  RH  068%=      5-min Rain = 0
KHES 190715Z 28005KT 02/M03 A30 RMK A01 T00211032  RH  068%=      5-min Rain = 0
KHES 190720Z 28005KT 02/M03 A30 RMK A01 T00221031  RH  068%=      5-min Rain = 0
KHES 190725Z 28005KT 02/M03 A30 RMK A01 T00231032  RH  067%=      5-min Rain = 0
KHES 190730Z 29004KT 02/M03 A30 RMK A01 T00221032  RH  067%=      5-min Rain = 0
KHES 190735Z 29004KT 02/M03 A30 RMK A01 T00231030  RH  068%=      5-min Rain = 0
KHES 190740Z 30003KT 03/M03 A30 RMK A01 T00271029  RH  067%=      5-min Rain = 0
KHES 190745Z 31002KT 03/M03 A30 RMK A01 T00291029  RH  066%=      5-min Rain = 0
KHES 190750Z 32001KT 03/M03 A30 RMK A01 T00271028  RH  067%=      5-min Rain = 0
KHES 190755Z 33001KT 03/M03 A30 RMK A01 T00261027  RH  068%=      5-min Rain = 0
KHES 190800Z 36001KT 03/M03 A30 RMK A01 T00281025  RH  068%=      5-min Rain = 0
KHES 190805Z 00001KT 03/M02 A30 RMK A01 T00341024  RH  066%=      5-min Rain = 0
KHES 190810Z 01000KT 04/M02 A2999 RMK A01 T00361024  RH  065%=      5-min Rain = 0
KHES 190815Z 00000KT 04/M02 A2999 RMK A01 T00371023  RH  065%=      5-min Rain = 0
KHES 190820Z 00000KT 04/M02 A30 RMK A01 T00361022  RH  067%=      5-min Rain = 0
KHES 190825Z 00000KT 04/M02 A30 RMK A01 T00351021  RH  067%=      5-min Rain = 0
KHES 190830Z 00000KT 03/M02 A30 RMK A01 T00311024  RH  068%=      5-min Rain = 0
KHES 190835Z 24002KT 01/M04 A30 RMK A01 T00141036  RH  070%=      5-min Rain = 0
KHES 190840Z 24002KT 01/M04 A30 RMK A01 T00071036  RH  074%=      5-min Rain = 0
KHES 190845Z 23003KT 01/M04 A30 RMK A01 T00051035  RH  075%=      5-min Rain = 0
KHES 190850Z 24002KT 00/M04 A30 RMK A01 T00041035  RH  075%=      5-min Rain = 0
KHES 190855Z 24001KT 01/M03 A30 RMK A01 T00061034  RH  075%=      5-min Rain = 0
KHES 190900Z 26001KT 01/M04 A30 RMK A01 T00051035  RH  075%=      5-min Rain = 0
KHES 190905Z 26001KT 01/M03 A30 RMK A01 T00111026  RH  077%=      5-min Rain = 0
KHES 190910Z 26000KT 01/M03 A2999 RMK A01 T00141027  RH  075%=      5-min Rain = 0
KHES 190915Z 00000KT 02/M03 A2999 RMK A01 T00151029  RH  073%=      5-min Rain = 0
KHES 190920Z 00000KT 02/M03 A2999 RMK A01 T00161028  RH  073%=      5-min Rain = 0
KHES 190925Z 00000KT 02/M03 A2999 RMK A01 T00191030  RH  070%=      5-min Rain = 0
KHES 190930Z 24000KT 02/M03 A2999 RMK A01 T00191028  RH  071%=      5-min Rain = 0
KHES 190935Z 24001KT 02/M03 A2999 RMK A01 T00201029  RH  070%=      5-min Rain = 0
KHES 190940Z 24002KT 02/M03 A2999 RMK A01 T00171031  RH  071%=      5-min Rain = 0
KHES 190945Z 22003KT 02/M03 A2999 RMK A01 T00161030  RH  072%=      5-min Rain = 0
KHES 190950Z 23004KT 01/M04 A2999 RMK A01 T00121036  RH  071%=      5-min Rain = 0
KHES 190955Z 22004KT 01/M04 A2999 RMK A01 T00081036  RH  073%=      5-min Rain = 0
KHES 191000Z 21003KT 01/M04 A2999 RMK A01 T00051038  RH  073%=      5-min Rain = 0
KHES 191005Z 23005KT 00/M04 A2998 RMK A01 T00031038  RH  074%=      5-min Rain = 0
KHES 191010Z 23006KT 00/M04 A2998 RMK A01 T00031036  RH  076%=      5-min Rain = 0
KHES 191015Z 23006KT 01/M03 A2998 RMK A01 T00061034  RH  075%=      5-min Rain = 0
KHES 191020Z 23006KT 00/M04 A2998 RMK A01 T00041036  RH  075%=      5-min Rain = 0
KHES 191025Z 22005KT 01/M04 A2998 RMK A01 T00051036  RH  075%=      5-min Rain = 0
KHES 191030Z 22005KT 01/M04 A2997 RMK A01 T00051036  RH  075%=      5-min Rain = 0
KHES 191035Z 23004KT 01/M04 A2997 RMK A01 T00051037  RH  074%=      5-min Rain = 0
KHES 191040Z 24004KT 00/M04 A2997 RMK A01 T00041037  RH  074%=      5-min Rain = 0
KHES 191045Z 24004KT 00/M04 A2997 RMK A01 T00041037  RH  074%=      5-min Rain = 0
KHES 191050Z 22004KT 00/M04 A2997 RMK A01 T00031037  RH  075%=      5-min Rain = 0
KHES 191055Z 21004KT 01/M04 A2997 RMK A01 T00051037  RH  073%=      5-min Rain = 0
KHES 191100Z 20004KT 01/M03 A2996 RMK A01 T00091033  RH  074%=      5-min Rain = 0
KHES 191105Z 22005KT 01/M04 A2997 RMK A01 T00081037  RH  072%=      5-min Rain = 0
KHES 191110Z 23005KT 00/M04 A2997 RMK A01 T00041039  RH  074%=      5-min Rain = 0
KHES 191115Z 23005KT 00/M04 A2997 RMK A01 T00041038  RH  074%=      5-min Rain = 0
KHES 191120Z 21003KT 00/04 A2996 RMK A01 T00000-39  RH  075%=      5-min Rain = 0
KHES 191125Z 22004KT 01/M04 A2997 RMK A01 T00051036  RH  074%=      5-min Rain = 0
KHES 191130Z 22004KT 01/M04 A2996 RMK A01 T00081036  RH  073%=      5-min Rain = 0
KHES 191135Z 24003KT 01/M04 A2997 RMK A01 T00061040  RH  072%=      5-min Rain = 0
KHES 191140Z 26003KT M00/M04 A2996 RMK A01 T10031044  RH  074%=      5-min Rain = 0
KHES 191145Z 26002KT M00/M04 A2996 RMK A01 T10021035  RH  078%=      5-min Rain = 0
KHES 191150Z 25003KT 00/M03 A2996 RMK A01 T00021034  RH  077%=      5-min Rain = 0
KHES 191155Z 24005KT 00/M04 A2996 RMK A01 T00031035  RH  076%=      5-min Rain = 0
KHES 191200Z 22005KT 00/M04 A2995 RMK A01 T00011038  RH  075%=      5-min Rain = 0
KHES 191205Z 21005KT 01/M03 A2995 RMK A01 T00061034  RH  075%=      5-min Rain = 0
KHES 191210Z 21005KT 01/M03 A2995 RMK A01 T00121031  RH  074%=      5-min Rain = 0
KHES 191215Z 22005KT 02/M03 A2995 RMK A01 T00171030  RH  072%=      5-min Rain = 0
KHES 191220Z 21005KT 02/M03 A2995 RMK A01 T00201028  RH  071%=      5-min Rain = 0
KHES 191225Z 21005KT 02/M03 A2995 RMK A01 T00201029  RH  070%=      5-min Rain = 0
KHES 191230Z 21005KT 02/M03 A2994 RMK A01 T00221026  RH  071%=      5-min Rain = 0
KHES 191235Z 21006KT 02/M03 A2994 RMK A01 T00241029  RH  069%=      5-min Rain = 0
KHES 191240Z 21006KT 02/M03 A2994 RMK A01 T00221029  RH  070%=      5-min Rain = 0
KHES 191245Z 22006KT 02/M03 A2995 RMK A01 T00221027  RH  070%=      5-min Rain = 0
KHES 191250Z 22007KT 02/M03 A2995 RMK A01 T00241026  RH  070%=      5-min Rain = 0
KHES 191255Z 21006KT 03/M03 A2994 RMK A01 T00251025  RH  070%=      5-min Rain = 0
KHES 191300Z 20006KT 03/M02 A2994 RMK A01 T00271024  RH  069%=      5-min Rain = 0
KHES 191305Z 20006KT 03/M02 A2994 RMK A01 T00301024  RH  068%=      5-min Rain = 0
KHES 191310Z 20006KT 03/M02 A2994 RMK A01 T00291024  RH  069%=      5-min Rain = 0
KHES 191315Z 20006KT 03/M03 A2995 RMK A01 T00271026  RH  069%=      5-min Rain = 0
KHES 191320Z 22006KT 03/M03 A2995 RMK A01 T00271027  RH  068%=      5-min Rain = 0
KHES 191325Z 22006KT 03/M03 A2995 RMK A01 T00261028  RH  068%=      5-min Rain = 0
KHES 191330Z 23005KT 02/M03 A2995 RMK A01 T00241029  RH  068%=      5-min Rain = 0
KHES 191335Z 24006KT 02/M03 A2995 RMK A01 T00181031  RH  071%=      5-min Rain = 0
KHES 191340Z 25006KT 02/M03 A2996 RMK A01 T00151030  RH  073%=      5-min Rain = 0
KHES 191345Z 24008KT 02/M02 A2996 RMK A01 T00221024  RH  072%=      5-min Rain = 0
KHES 191350Z 24008KT 03/M02 A2996 RMK A01 T00261022  RH  071%=      5-min Rain = 0
KHES 191355Z 23006KT 04/M02 A2996 RMK A01 T00371020  RH  066%=      5-min Rain = 0
KHES 191400Z 22006KT 04/M02 A2996 RMK A01 T00411021  RH  065%=      5-min Rain = 0
KHES 191405Z 22006KT 04/M02 A2996 RMK A01 T00401021  RH  065%=      5-min Rain = 0
KHES 191410Z 22006KT 04/M02 A2996 RMK A01 T00401020  RH  065%=      5-min Rain = 0
KHES 191415Z 21006KT 04/M02 A2996 RMK A01 T00421018  RH  065%=      5-min Rain = 0
KHES 191420Z 21006KT 05/M02 A2996 RMK A01 T00481017  RH  063%=      5-min Rain = 0
KHES 191425Z 21006KT 05/M02 A2996 RMK A01 T00521015  RH  063%=      5-min Rain = 0
KHES 191430Z 20007KT 06/M01 A2995 RMK A01 T00571012  RH  062%=      5-min Rain = 0
KHES 191435Z 20007KT 07/M01 A2995 RMK A01 T00651009  RH  060%=      5-min Rain = 0
KHES 191440Z 19007KT 07/M01 A2995 RMK A01 T00691007  RH  059%=      5-min Rain = 0
KHES 191445Z 20007KT 07/M01 A2995 RMK A01 T00741005  RH  058%=      5-min Rain = 0
KHES 191450Z 19006KT 08/00 A2995 RMK A01 T00840001  RH  056%=      5-min Rain = 0
KHES 191455Z 19005KT 09/00 A2995 RMK A01 T00920003  RH  054%=      5-min Rain = 0
KHES 191500Z 21008KT 10/00 A2996 RMK A01 T00960002  RH  053%=      5-min Rain = 0
KHES 191505Z 21010KT 10/M00 A2995 RMK A01 T00981001  RH  051%=      5-min Rain = 0
KHES 191510Z 20010KT 10/00 A2995 RMK A01 T009900-0  RH  051%=      5-min Rain = 0
KHES 191515Z 20008KT 10/00 A2995 RMK A01 T01040003  RH  050%=      5-min Rain = 0
KHES 191520Z 20008KT 11/00 A2995 RMK A01 T01080004  RH  049%=      5-min Rain = 0
KHES 191525Z 20010KT 11/01 A2995 RMK A01 T01130005  RH  048%=      5-min Rain = 0
KHES 191530Z 21010G15KT 12/00 A2995 RMK A01 T01180004  RH  046%=      5-min Rain = 0
KHES 191535Z 21009KT 12/01 A2995 RMK A01 T01220005  RH  045%=      5-min Rain = 0
KHES 191540Z 21009G14KT 13/01 A2995 RMK A01 T01270007  RH  044%=      5-min Rain = 0
KHES 191545Z 22009KT 13/01 A2995 RMK A01 T01340008  RH  043%=      5-min Rain = 0
KHES 191550Z 21008G13KT 14/01 A2995 RMK A01 T01410008  RH  041%=      5-min Rain = 0
KHES 191555Z 21011KT 15/01 A2995 RMK A01 T01450006  RH  039%=      5-min Rain = 0
KHES 191600Z 21010KT 15/01 A2995 RMK A01 T01470007  RH  039%=      5-min Rain = 0
KHES 191605Z 20011KT 15/01 A2995 RMK A01 T01490009  RH  039%=      5-min Rain = 0
KHES 191610Z 19010G15KT 15/01 A2995 RMK A01 T01500009  RH  039%=      5-min Rain = 0
KHES 191615Z 19010G15KT 15/01 A2995 RMK A01 T01540010  RH  038%=      5-min Rain = 0
KHES 191620Z 19011KT 16/01 A2994 RMK A01 T01580011  RH  037%=      5-min Rain = 0
KHES 191625Z 19011KT 17/01 A2994 RMK A01 T01670013  RH  036%=      5-min Rain = 0
KHES 191630Z 20012G18KT 17/01 A2994 RMK A01 T01710009  RH  034%=      5-min Rain = 0
KHES 191635Z 20013G18KT 17/00 A2994 RMK A01 T01690003  RH  033%=      5-min Rain = 0
KHES 191640Z 20013G18KT 17/00 A2994 RMK A01 T01660003  RH  034%=      5-min Rain = 0
KHES 191645Z 20015G22KT 17/00 A2994 RMK A01 T01680004  RH  033%=      5-min Rain = 0
KHES 191650Z 20017KT 17/00 A2994 RMK A01 T01650002  RH  033%=      5-min Rain = 0
KHES 191655Z 20013G20KT 17/01 A2994 RMK A01 T01650006  RH  034%=      5-min Rain = 0
KHES 191700Z 19012G17KT 17/01 A2994 RMK A01 T01720011  RH  034%=      5-min Rain = 0
KHES 191705Z 19012G17KT 18/01 A2994 RMK A01 T01760014  RH  034%=      5-min Rain = 0
KHES 191710Z 20012KT 18/01 A2993 RMK A01 T01770011  RH  033%=      5-min Rain = 0
KHES 191715Z 20011G17KT 18/01 A2993 RMK A01 T01830011  RH  032%=      5-min Rain = 0
KHES 191720Z 20015KT 19/01 A2993 RMK A01 T01880006  RH  030%=      5-min Rain = 0
KHES 191725Z 20013KT 19/00 A2992 RMK A01 T01930003  RH  028%=      5-min Rain = 0
KHES 191730Z 20014G21KT 20/01 A2992 RMK A01 T01970006  RH  028%=      5-min Rain = 0
KHES 191735Z 20017G22KT 20/00 A2992 RMK A01 T01950002  RH  028%=      5-min Rain = 0
KHES 191740Z 20015G20KT 20/00 A2991 RMK A01 T01950004  RH  028%=      5-min Rain = 0
KHES 191745Z 20015G23KT 20/01 A2991 RMK A01 T02020007  RH  028%=      5-min Rain = 0
KHES 191750Z 20017G24KT 20/M00 A2991 RMK A01 T02001001  RH  026%=      5-min Rain = 0
KHES 191755Z 20017KT 20/M00 A2991 RMK A01 T02001003  RH  026%=      5-min Rain = 0
KHES 191800Z 20017KT 20/M00 A299 RMK A01 T01991002  RH  026%=      5-min Rain = 0
KHES 191805Z 20017KT 20/00 A299 RMK A01 T01970000  RH  027%=      5-min Rain = 0
KHES 191810Z 21017G24KT 20/00 A2989 RMK A01 T02010002  RH  027%=      5-min Rain = 0
KHES 191815Z 21018G26KT 20/M00 A2989 RMK A01 T01991002  RH  026%=      5-min Rain = 0
KHES 191820Z 21016G25KT 20/00 A2989 RMK A01 T02010003  RH  027%=      5-min Rain = 0
KHES 191825Z 21017G24KT 21/01 A2988 RMK A01 T02100006  RH  026%=      5-min Rain = 0
KHES 191830Z 20018G23KT 21/01 A2988 RMK A01 T02140006  RH  025%=      5-min Rain = 0
KHES 191835Z 20017KT 22/01 A2988 RMK A01 T02180005  RH  025%=      5-min Rain = 0
KHES 191840Z 21017G22KT 22/00 A2987 RMK A01 T02220000  RH  023%=      5-min Rain = 0
KHES 191845Z 21017G22KT 22/M00 A2987 RMK A01 T02231001  RH  023%=      5-min Rain = 0
KHES 191850Z 20016G22KT 23/00 A2987 RMK A01 T022500-0  RH  023%=      5-min Rain = 0
KHES 191855Z 20018G24KT 23/M00 A2986 RMK A01 T02251001  RH  022%=      5-min Rain = 0
KHES 191900Z 20018G24KT 23/M00 A2986 RMK A01 T02251002  RH  022%=      5-min Rain = 0
KHES 191905Z 21018G25KT 23/M00 A2986 RMK A01 T02271002  RH  022%=      5-min Rain = 0
KHES 191910Z 20017G24KT 23/M00 A2985 RMK A01 T02261003  RH  022%=      5-min Rain = 0
KHES 191915Z 21018G25KT 23/M00 A2985 RMK A01 T02301003  RH  021%=      5-min Rain = 0
KHES 191920Z 21016G23KT 23/M00 A2985 RMK A01 T02341001  RH  021%=      5-min Rain = 0
KHES 191925Z 21020G25KT 24/M00 A2985 RMK A01 T02351004  RH  021%=      5-min Rain = 0
KHES 191930Z 20017G25KT 24/M00 A2984 RMK A01 T02351003  RH  021%=      5-min Rain = 0
KHES 191935Z 20016G21KT 24/M01 A2984 RMK A01 T02361005  RH  020%=      5-min Rain = 0
KHES 191940Z 20016G23KT 24/M01 A2983 RMK A01 T02361006  RH  020%=      5-min Rain = 0
KHES 191945Z 21017G22KT 24/M01 A2983 RMK A01 T02391006  RH  020%=      5-min Rain = 0
KHES 191950Z 21017G25KT 24/M01 A2983 RMK A01 T02371008  RH  020%=      5-min Rain = 0
KHES 191955Z 21019KT 24/M01 A2983 RMK A01 T02361009  RH  020%=      5-min Rain = 0
KHES 192000Z 20017G23KT 24/M01 A2983 RMK A01 T02361010  RH  020%=      5-min Rain = 0
KHES 192005Z 20016G24KT 24/M01 A2982 RMK A01 T02391008  RH  020%=      5-min Rain = 0
KHES 192010Z 20017G23KT 24/M01 A2982 RMK A01 T02381010  RH  019%=      5-min Rain = 0
KHES 192015Z 20017G22KT 24/M01 A2982 RMK A01 T02381008  RH  020%=      5-min Rain = 0
KHES 192020Z 21017G22KT 24/M01 A2982 RMK A01 T02401010  RH  019%=      5-min Rain = 0
KHES 192025Z 21017G25KT 24/M01 A2982 RMK A01 T02391010  RH  019%=      5-min Rain = 0
KHES 192030Z 20017G23KT 24/M01 A2981 RMK A01 T02371012  RH  019%=      5-min Rain = 0
KHES 192035Z 20016G22KT 24/M01 A2981 RMK A01 T02381011  RH  019%=      5-min Rain = 0
KHES 192040Z 21017G23KT 24/M01 A2981 RMK A01 T02391010  RH  019%=      5-min Rain = 0
KHES 192045Z 20017G25KT 24/M01 A2981 RMK A01 T02371010  RH  020%=      5-min Rain = 0
KHES 192050Z 21017G25KT 24/M01 A2981 RMK A01 T02381009  RH  020%=      5-min Rain = 0
KHES 192055Z 20014G21KT 24/M01 A298 RMK A01 T02371009  RH  020%=      5-min Rain = 0
KHES 192100Z 20018G25KT 24/M01 A298 RMK A01 T02361010  RH  020%=      5-min Rain = 0
KHES 192105Z 20017G23KT 24/M01 A298 RMK A01 T02351010  RH  020%=      5-min Rain = 0
KHES 192110Z 20017G24KT 24/M01 A298 RMK A01 T02371010  RH  020%=      5-min Rain = 0
KHES 192115Z 20016G23KT 24/M01 A298 RMK A01 T02351012  RH  020%=      5-min Rain = 0
KHES 192120Z 20014G19KT 23/M01 A298 RMK A01 T02291011  RH  020%=      5-min Rain = 0
KHES 192125Z 20012G17KT 23/M01 A298 RMK A01 T02281013  RH  020%=      5-min Rain = 0
KHES 192130Z 20012G18KT 23/M01 A298 RMK A01 T02291010  RH  021%=      5-min Rain = 0
KHES 192135Z 20014G19KT 23/M01 A298 RMK A01 T02291011  RH  020%=      5-min Rain = 0
KHES 192140Z 20014G19KT 23/M01 A2979 RMK A01 T02311011  RH  020%=      5-min Rain = 0
KHES 192145Z 20010G15KT 24/M01 A2979 RMK A01 T02351008  RH  020%=      5-min Rain = 0
KHES 192150Z 20012G17KT 24/M01 A2979 RMK A01 T02401007  RH  020%=      5-min Rain = 0
KHES 192155Z 20014G19KT 24/M01 A2979 RMK A01 T02401008  RH  019%=      5-min Rain = 0
KHES 192200Z 21015G20KT 24/M01 A2979 RMK A01 T02401010  RH  019%=      5-min Rain = 0
KHES 192205Z 21015G20KT 24/M01 A2979 RMK A01 T02401014  RH  019%=      5-min Rain = 0
KHES 192210Z 22013G19KT 24/M01 A2979 RMK A01 T02401012  RH  019%=      5-min Rain = 0
KHES 192215Z 21014KT 24/M02 A2979 RMK A01 T02391019  RH  018%=      5-min Rain = 0
KHES 192220Z 21014KT 24/M02 A2979 RMK A01 T02391019  RH  018%=      5-min Rain = 0
KHES 192225Z 22012KT 24/M02 A2979 RMK A01 T02381020  RH  018%=      5-min Rain = 0
KHES 192230Z 22013KT 24/M02 A2979 RMK A01 T02371021  RH  018%=      5-min Rain = 0
KHES 192235Z 21011KT 24/M02 A2979 RMK A01 T02361019  RH  019%=      5-min Rain = 0
KHES 192240Z 21011G16KT 23/M02 A2979 RMK A01 T02341018  RH  019%=      5-min Rain = 0
KHES 192245Z 21011KT 23/M02 A2978 RMK A01 T02331018  RH  019%=      5-min Rain = 0
KHES 192250Z 21009KT 23/M02 A2978 RMK A01 T02311017  RH  019%=      5-min Rain = 0
KHES 192255Z 20008KT 23/M02 A2978 RMK A01 T02281015  RH  020%=      5-min Rain = 0
KHES 192300Z 20008KT 22/M02 A2978 RMK A01 T02241016  RH  020%=      5-min Rain = 0
KHES 192305Z 20008KT 22/M02 A2978 RMK A01 T02181015  RH  021%=      5-min Rain = 0
KHES 192310Z 20009KT 21/M02 A2978 RMK A01 T02121015  RH  022%=      5-min Rain = 0
KHES 192315Z 20008KT 21/M01 A2979 RMK A01 T02081014  RH  023%=      5-min Rain = 0
KHES 192320Z 19007KT 21/M02 A2979 RMK A01 T02051015  RH  023%=      5-min Rain = 0
KHES 192325Z 19008KT 20/M02 A2979 RMK A01 T02031016  RH  023%=      5-min Rain = 0
KHES 192330Z 19008KT 20/M02 A2979 RMK A01 T01981015  RH  024%=      5-min Rain = 0
KHES 192335Z 19008KT 20/M01 A2979 RMK A01 T01951014  RH  024%=      5-min Rain = 0
KHES 192340Z 19008KT 19/M01 A2979 RMK A01 T01931014  RH  025%=      5-min Rain = 0
KHES 192345Z 19008KT 19/M01 A2979 RMK A01 T01891013  RH  026%=      5-min Rain = 0
KHES 192350Z 19008KT 19/M01 A2979 RMK A01 T01851012  RH  027%=      5-min Rain = 0
KHES 192355Z 19007KT 18/M01 A2979 RMK A01 T01791010  RH  028%=      5-min Rain = 0
KHES 200000Z 20008KT 18/M02 A2979 RMK A01 T01811015  RH  027%=      5-min Rain = 0
KHES 200005Z 19009KT 18/M02 A2979 RMK A01 T01821017  RH  026%=      5-min Rain = 0
KHES 200010Z 18008KT 17/M01 A298 RMK A01 T01741012  RH  028%=      5-min Rain = 0
KHES 200015Z 18008KT 17/M01 A298 RMK A01 T01651011  RH  030%=      5-min Rain = 0
KHES 200020Z 17008KT 16/M01 A298 RMK A01 T01601010  RH  031%=      5-min Rain = 0
KHES 200025Z 18008KT 15/M01 A298 RMK A01 T01521008  RH  034%=      5-min Rain = 0
KHES 200030Z 18009KT 15/M01 A298 RMK A01 T01491008  RH  034%=      5-min Rain = 0
KHES 200035Z 19010KT 15/M01 A2979 RMK A01 T01531010  RH  033%=      5-min Rain = 0
KHES 200040Z 18010KT 16/M01 A2979 RMK A01 T01551010  RH  033%=      5-min Rain = 0
KHES 200045Z 17010KT 15/M01 A2979 RMK A01 T01541009  RH  033%=      5-min Rain = 0
KHES 200050Z 17009KT 15/M01 A2979 RMK A01 T01521009  RH  033%=      5-min Rain = 0
KHES 200055Z 17009KT 15/M01 A2979 RMK A01 T01511009  RH  034%=      5-min Rain = 0
KHES 200100Z 17008KT 15/M01 A2979 RMK A01 T01471008  RH  035%=      5-min Rain = 0
KHES 200105Z 16008KT 14/M01 A2979 RMK A01 T01411006  RH  037%=      5-min Rain = 0
KHES 200110Z 16008KT 14/M01 A2979 RMK A01 T01401007  RH  037%=      5-min Rain = 0
KHES 200115Z 18008KT 14/M01 A2979 RMK A01 T01391007  RH  037%=      5-min Rain = 0
KHES 200120Z 16009KT 14/M01 A298 RMK A01 T01351007  RH  038%=      5-min Rain = 0
KHES 200125Z 18008KT 13/M01 A298 RMK A01 T01341008  RH  038%=      5-min Rain = 0
KHES 200130Z 18009KT 13/M01 A2979 RMK A01 T01311009  RH  038%=      5-min Rain = 0
KHES 200135Z 18008KT 13/M01 A2979 RMK A01 T01281009  RH  039%=      5-min Rain = 0
KHES 200140Z 18008KT 13/M01 A2979 RMK A01 T01251009  RH  040%=      5-min Rain = 0
KHES 200145Z 18009KT 13/M01 A298 RMK A01 T01261010  RH  040%=      5-min Rain = 0
KHES 200150Z 18009KT 13/M01 A298 RMK A01 T01281010  RH  039%=      5-min Rain = 0
KHES 200155Z 17009KT 13/M01 A298 RMK A01 T01271009  RH  039%=      5-min Rain = 0
KHES 200200Z 18008KT 13/M01 A298 RMK A01 T01261009  RH  040%=      5-min Rain = 0
KHES 200205Z 18008KT 12/M01 A298 RMK A01 T01211008  RH  041%=      5-min Rain = 0
KHES 200210Z 18008KT 12/M01 A298 RMK A01 T01191008  RH  042%=      5-min Rain = 0
KHES 200215Z 18008KT 12/M01 A298 RMK A01 T01171009  RH  042%=      5-min Rain = 0
KHES 200220Z 18009KT 12/M01 A298 RMK A01 T01161009  RH  042%=      5-min Rain = 0
KHES 200225Z 18009KT 12/M01 A298 RMK A01 T01151010  RH  042%=      5-min Rain = 0
KHES 200230Z 18009KT 12/M01 A298 RMK A01 T01191011  RH  041%=      5-min Rain = 0
KHES 200235Z 18008KT 12/M01 A298 RMK A01 T01181011  RH  041%=      5-min Rain = 0
KHES 200240Z 18008KT 12/M01 A298 RMK A01 T01181011  RH  041%=      5-min Rain = 0
KHES 200245Z 18008KT 12/M01 A298 RMK A01 T01161010  RH  042%=      5-min Rain = 0
KHES 200250Z 19009KT 12/M01 A298 RMK A01 T01171011  RH  042%=      5-min Rain = 0
KHES 200255Z 19009KT 12/M01 A298 RMK A01 T01191011  RH  041%=      5-min Rain = 0
KHES 200300Z 18008KT 12/M01 A298 RMK A01 T01191011  RH  041%=      5-min Rain = 0
KHES 200305Z 19008KT 12/M01 A298 RMK A01 T01191011  RH  041%=      5-min Rain = 0
KHES 200310Z 18009KT 12/M01 A2981 RMK A01 T01241011  RH  039%=      5-min Rain = 0
KHES 200315Z 19009KT 12/M01 A2981 RMK A01 T01221011  RH  040%=      5-min Rain = 0
KHES 200320Z 18009KT 12/M01 A2981 RMK A01 T01201010  RH  041%=      5-min Rain = 0
KHES 200325Z 19009KT 12/M01 A2981 RMK A01 T01181010  RH  041%=      5-min Rain = 0
KHES 200330Z 19009KT 12/M01 A2981 RMK A01 T01211011  RH  040%=      5-min Rain = 0
KHES 200335Z 19009KT 12/M01 A2981 RMK A01 T01231012  RH  039%=      5-min Rain = 0
KHES 200340Z 20011G16KT 13/M01 A2981 RMK A01 T01271013  RH  038%=      5-min Rain = 0
KHES 200345Z 20011KT 13/M01 A2981 RMK A01 T01291014  RH  037%=      5-min Rain = 0
KHES 200350Z 21009KT 13/M01 A2981 RMK A01 T01301014  RH  037%=      5-min Rain = 0
KHES 200355Z 21010G16KT 13/M02 A2981 RMK A01 T01291015  RH  037%=      5-min Rain = 0
KHES 200400Z 21010KT 13/M02 A298 RMK A01 T01311015  RH  037%=      5-min Rain = 0
KHES 200405Z 22009KT 13/M02 A298 RMK A01 T01281015  RH  037%=      5-min Rain = 0
KHES 200410Z 22009KT 13/M02 A298 RMK A01 T01261015  RH  038%=      5-min Rain = 0
KHES 200415Z 22009KT 12/M02 A298 RMK A01 T01231015  RH  039%=      5-min Rain = 0
KHES 200420Z 22010KT 12/M01 A298 RMK A01 T01221014  RH  039%=      5-min Rain = 0
KHES 200425Z 22011KT 12/M02 A298 RMK A01 T01211015  RH  039%=      5-min Rain = 0
KHES 200430Z 22009KT 12/M02 A298 RMK A01 T01171015  RH  040%=      5-min Rain = 0
KHES 200435Z 22010KT 12/M02 A2981 RMK A01 T01161015  RH  041%=      5-min Rain = 0
KHES 200440Z 22011KT 12/M01 A298 RMK A01 T01171014  RH  040%=      5-min Rain = 0
KHES 200445Z 22010KT 12/M01 A298 RMK A01 T01181014  RH  040%=      5-min Rain = 0
KHES 200450Z 23009KT 11/M02 A298 RMK A01 T01141015  RH  041%=      5-min Rain = 0
KHES 200455Z 23009KT 11/M02 A2981 RMK A01 T01101015  RH  042%=      5-min Rain = 0
KHES 200500Z 21009KT 11/M01 A298 RMK A01 T01081014  RH  043%=      5-min Rain = 0
KHES 200505Z 21009KT 11/M01 A298 RMK A01 T01071014  RH  043%=      5-min Rain = 0
KHES 200510Z 21009KT 11/M01 A298 RMK A01 T01081013  RH  043%=      5-min Rain = 0
KHES 200515Z 23009KT 11/M01 A298 RMK A01 T01071014  RH  043%=      5-min Rain = 0
KHES 200520Z 22007KT 10/M02 A298 RMK A01 T00991015  RH  046%=      5-min Rain = 0
KHES 200525Z 22007KT 10/M01 A298 RMK A01 T00961014  RH  047%=      5-min Rain = 0
KHES 200530Z 22007KT 10/M01 A298 RMK A01 T00961014  RH  047%=      5-min Rain = 0
KHES 200535Z 21007KT 10/M01 A298 RMK A01 T00971014  RH  047%=      5-min Rain = 0
KHES 200540Z 21008KT 10/M01 A298 RMK A01 T00951013  RH  047%=      5-min Rain = 0
KHES 200545Z 22008KT 10/M01 A298 RMK A01 T00971013  RH  047%=      5-min Rain = 0
KHES 200550Z 22008KT 10/M01 A298 RMK A01 T00961013  RH  047%=      5-min Rain = 0
KHES 200555Z 22008KT 10/M01 A298 RMK A01 T00971012  RH  047%=      5-min Rain = 0

Page generated in 0.01 seconds.